sensor_id;sensor_type;location;lat;lon;timestamp;pressure;altitude;pressure_sealevel;temperature;humidity
44453;BME280;30155;52.164;21.236;2023-04-21T00:04:39;100935.89;;;9.37;52.08
44453;BME280;30155;52.164;21.236;2023-04-21T00:09:32;100936.19;;;9.28;52.30
44453;BME280;30155;52.164;21.236;2023-04-21T00:14:24;100930.56;;;9.18;52.38
44453;BME280;30155;52.164;21.236;2023-04-21T00:19:18;100931.88;;;9.09;52.75
44453;BME280;30155;52.164;21.236;2023-04-21T00:24:12;100929.80;;;9.02;52.87
44453;BME280;30155;52.164;21.236;2023-04-21T00:29:04;100926.58;;;8.91;53.10
44453;BME280;30155;52.164;21.236;2023-04-21T00:33:58;100926.88;;;8.84;53.30
44453;BME280;30155;52.164;21.236;2023-04-21T00:38:50;100922.40;;;8.78;53.47
44453;BME280;30155;52.164;21.236;2023-04-21T00:44:02;100925.63;;;8.69;53.62
44453;BME280;30155;52.164;21.236;2023-04-21T00:48:56;100925.20;;;8.60;53.85
44453;BME280;30155;52.164;21.236;2023-04-21T00:53:49;100924.95;;;8.52;54.15
44453;BME280;30155;52.164;21.236;2023-04-21T00:58:42;100921.45;;;8.50;54.19
44453;BME280;30155;52.164;21.236;2023-04-21T01:03:37;100916.24;;;8.38;54.71
44453;BME280;30155;52.164;21.236;2023-04-21T01:08:30;100916.46;;;8.22;54.86
44453;BME280;30155;52.164;21.236;2023-04-21T01:13:23;100919.81;;;8.07;55.19
44453;BME280;30155;52.164;21.236;2023-04-21T01:18:16;100923.20;;;7.93;55.38
44453;BME280;30155;52.164;21.236;2023-04-21T01:23:11;100921.20;;;7.79;55.76
44453;BME280;30155;52.164;21.236;2023-04-21T01:28:04;100925.00;;;7.69;55.79
44453;BME280;30155;52.164;21.236;2023-04-21T01:32:57;100928.58;;;7.62;56.29
44453;BME280;30155;52.164;21.236;2023-04-21T01:37:51;100927.30;;;7.54;56.57
44453;BME280;30155;52.164;21.236;2023-04-21T01:42:44;100927.80;;;7.48;56.60
44453;BME280;30155;52.164;21.236;2023-04-21T01:47:36;100924.95;;;7.45;56.72
44453;BME280;30155;52.164;21.236;2023-04-21T01:52:29;100926.15;;;7.45;56.93
44453;BME280;30155;52.164;21.236;2023-04-21T01:57:22;100929.27;;;7.46;57.09
44453;BME280;30155;52.164;21.236;2023-04-21T02:02:16;100930.02;;;7.48;56.96
44453;BME280;30155;52.164;21.236;2023-04-21T02:07:08;100926.77;;;7.43;56.92
44453;BME280;30155;52.164;21.236;2023-04-21T02:12:03;100923.63;;;7.42;57.21
44453;BME280;30155;52.164;21.236;2023-04-21T02:16:56;100920.84;;;7.31;57.30
44453;BME280;30155;52.164;21.236;2023-04-21T02:21:49;100922.64;;;7.18;57.69
44453;BME280;30155;52.164;21.236;2023-04-21T02:26:45;100921.63;;;7.03;57.81
44453;BME280;30155;52.164;21.236;2023-04-21T02:31:37;100918.27;;;6.91;58.14
44453;BME280;30155;52.164;21.236;2023-04-21T02:36:48;100919.14;;;6.81;58.39
44453;BME280;30155;52.164;21.236;2023-04-21T02:41:42;100920.99;;;6.70;58.36
44453;BME280;30155;52.164;21.236;2023-04-21T02:46:38;100917.50;;;6.60;58.61
44453;BME280;30155;52.164;21.236;2023-04-21T02:51:31;100915.89;;;6.53;58.96
44453;BME280;30155;52.164;21.236;2023-04-21T02:56:24;100915.33;;;6.47;59.05
44453;BME280;30155;52.164;21.236;2023-04-21T03:01:16;100915.83;;;6.41;59.24
44453;BME280;30155;52.164;21.236;2023-04-21T03:06:09;100914.94;;;6.36;59.35
44453;BME280;30155;52.164;21.236;2023-04-21T03:11:03;100912.04;;;6.28;59.48
44453;BME280;30155;52.164;21.236;2023-04-21T03:15:56;100907.15;;;6.21;59.63
44453;BME280;30155;52.164;21.236;2023-04-21T03:20:48;100909.89;;;6.17;59.77
44453;BME280;30155;52.164;21.236;2023-04-21T03:25:41;100911.30;;;6.13;59.97
44453;BME280;30155;52.164;21.236;2023-04-21T03:30:34;100910.19;;;6.10;60.17
44453;BME280;30155;52.164;21.236;2023-04-21T03:35:27;100910.41;;;6.07;60.27
44453;BME280;30155;52.164;21.236;2023-04-21T03:40:21;100917.65;;;6.03;60.46
44453;BME280;30155;52.164;21.236;2023-04-21T03:45:14;100918.19;;;6.04;60.64
44453;BME280;30155;52.164;21.236;2023-04-21T03:50:09;100919.86;;;6.06;60.57
44453;BME280;30155;52.164;21.236;2023-04-21T03:55:03;100927.02;;;6.15;60.66
44453;BME280;30155;52.164;21.236;2023-04-21T03:59:59;100926.02;;;6.29;60.54
44453;BME280;30155;52.164;21.236;2023-04-21T04:04:52;100929.90;;;6.55;60.32
44453;BME280;30155;52.164;21.236;2023-04-21T04:09:44;100929.69;;;6.68;60.11
44453;BME280;30155;52.164;21.236;2023-04-21T04:14:37;100936.29;;;6.89;59.80
44453;BME280;30155;52.164;21.236;2023-04-21T04:19:30;100939.58;;;7.49;59.40
44453;BME280;30155;52.164;21.236;2023-04-21T04:24:23;100938.85;;;7.59;59.01
44453;BME280;30155;52.164;21.236;2023-04-21T04:29:17;100939.90;;;7.49;58.97
44453;BME280;30155;52.164;21.236;2023-04-21T04:34:10;100945.45;;;7.44;58.77
44453;BME280;30155;52.164;21.236;2023-04-21T04:39:03;100950.36;;;7.48;58.71
44453;BME280;30155;52.164;21.236;2023-04-21T04:43:59;100954.14;;;7.52;58.67
44453;BME280;30155;52.164;21.236;2023-04-21T04:48:54;100951.36;;;7.57;58.43
44453;BME280;30155;52.164;21.236;2023-04-21T04:53:47;100955.79;;;7.65;58.37
44453;BME280;30155;52.164;21.236;2023-04-21T04:58:40;100951.45;;;7.75;58.03
44453;BME280;30155;52.164;21.236;2023-04-21T05:03:33;100953.22;;;7.82;58.06
44453;BME280;30155;52.164;21.236;2023-04-21T05:08:26;100952.27;;;7.90;57.79
44453;BME280;30155;52.164;21.236;2023-04-21T05:13:19;100953.83;;;8.01;57.62
44453;BME280;30155;52.164;21.236;2023-04-21T05:18:12;100953.16;;;8.14;57.44
44453;BME280;30155;52.164;21.236;2023-04-21T05:23:04;100953.53;;;8.26;57.29
44453;BME280;30155;52.164;21.236;2023-04-21T05:27:57;100945.73;;;8.37;57.17
44453;BME280;30155;52.164;21.236;2023-04-21T05:32:50;100943.86;;;8.48;56.91
44453;BME280;30155;52.164;21.236;2023-04-21T05:37:43;100944.73;;;8.60;56.59
44453;BME280;30155;52.164;21.236;2023-04-21T05:42:35;100948.34;;;8.72;56.44
44453;BME280;30155;52.164;21.236;2023-04-21T05:47:28;100946.44;;;8.85;56.20
44453;BME280;30155;52.164;21.236;2023-04-21T05:52:21;100944.81;;;8.95;55.78
44453;BME280;30155;52.164;21.236;2023-04-21T05:57:14;100945.46;;;9.05;55.88
44453;BME280;30155;52.164;21.236;2023-04-21T06:02:08;100944.00;;;9.23;55.41
44453;BME280;30155;52.164;21.236;2023-04-21T06:07:05;100942.08;;;9.42;55.11
44453;BME280;30155;52.164;21.236;2023-04-21T06:11:58;100943.02;;;9.59;55.01
44453;BME280;30155;52.164;21.236;2023-04-21T06:16:52;100939.34;;;10.09;54.13
44453;BME280;30155;52.164;21.236;2023-04-21T06:21:44;100934.41;;;10.97;53.02
44453;BME280;30155;52.164;21.236;2023-04-21T06:26:37;100938.45;;;11.70;51.76
44453;BME280;30155;52.164;21.236;2023-04-21T06:31:30;100933.82;;;11.73;51.45
44453;BME280;30155;52.164;21.236;2023-04-21T06:36:23;100933.87;;;11.66;50.93
44453;BME280;30155;52.164;21.236;2023-04-21T06:41:16;100933.70;;;11.65;50.83
44453;BME280;30155;52.164;21.236;2023-04-21T06:46:09;100926.70;;;13.37;49.18
44453;BME280;30155;52.164;21.236;2023-04-21T06:51:02;100915.15;;;16.43;46.35
44453;BME280;30155;52.164;21.236;2023-04-21T06:55:55;100907.00;;;19.64;41.84
44453;BME280;30155;52.164;21.236;2023-04-21T07:00:48;100902.86;;;22.48;39.07
44453;BME280;30155;52.164;21.236;2023-04-21T07:05:41;100899.67;;;24.75;36.86
44453;BME280;30155;52.164;21.236;2023-04-21T07:10:34;100901.74;;;25.60;35.41
44453;BME280;30155;52.164;21.236;2023-04-21T07:15:27;100907.45;;;26.14;33.65
44453;BME280;30155;52.164;21.236;2023-04-21T07:20:19;100902.41;;;25.53;33.11
44453;BME280;30155;52.164;21.236;2023-04-21T07:25:12;100900.94;;;27.18;31.34
44453;BME280;30155;52.164;21.236;2023-04-21T07:30:05;100894.71;;;29.54;29.57
44453;BME280;30155;52.164;21.236;2023-04-21T07:34:58;100896.84;;;31.72;27.55
44453;BME280;30155;52.164;21.236;2023-04-21T07:39:52;100896.67;;;32.16;26.60
44453;BME280;30155;52.164;21.236;2023-04-21T07:44:45;100897.95;;;31.95;26.33
44453;BME280;30155;52.164;21.236;2023-04-21T07:49:39;100888.65;;;32.33;25.05
44453;BME280;30155;52.164;21.236;2023-04-21T07:54:32;100889.63;;;30.90;24.78
44453;BME280;30155;52.164;21.236;2023-04-21T07:59:25;100883.80;;;31.63;23.92
44453;BME280;30155;52.164;21.236;2023-04-21T08:04:17;100876.17;;;32.24;23.21
44453;BME280;30155;52.164;21.236;2023-04-21T08:09:11;100875.15;;;33.00;21.94
44453;BME280;30155;52.164;21.236;2023-04-21T08:14:04;100872.15;;;31.26;22.70
44453;BME280;30155;52.164;21.236;2023-04-21T08:18:57;100873.38;;;28.58;23.84
44453;BME280;30155;52.164;21.236;2023-04-21T08:23:50;100872.27;;;28.89;23.00
44453;BME280;30155;52.164;21.236;2023-04-21T08:28:43;100869.34;;;29.53;21.84
44453;BME280;30155;52.164;21.236;2023-04-21T08:33:39;100868.52;;;29.87;21.22
44453;BME280;30155;52.164;21.236;2023-04-21T08:38:48;100863.42;;;28.79;21.83
44453;BME280;30155;52.164;21.236;2023-04-21T08:43:41;100868.54;;;27.78;22.64
44453;BME280;30155;52.164;21.236;2023-04-21T08:48:35;100864.36;;;27.31;23.38
44453;BME280;30155;52.164;21.236;2023-04-21T08:53:28;100861.73;;;27.55;22.71
44453;BME280;30155;52.164;21.236;2023-04-21T08:58:21;100862.95;;;27.49;22.74
44453;BME280;30155;52.164;21.236;2023-04-21T09:03:20;100862.44;;;27.41;21.63
44453;BME280;30155;52.164;21.236;2023-04-21T09:08:17;100853.31;;;26.24;22.62
44453;BME280;30155;52.164;21.236;2023-04-21T09:13:09;100848.35;;;26.47;22.04
44453;BME280;30155;52.164;21.236;2023-04-21T09:18:04;100850.57;;;26.60;21.50
44453;BME280;30155;52.164;21.236;2023-04-21T09:23:05;100842.66;;;27.48;21.39
44453;BME280;30155;52.164;21.236;2023-04-21T09:28:01;100845.59;;;27.82;20.85
44453;BME280;30155;52.164;21.236;2023-04-21T09:32:57;100839.34;;;27.81;20.15
44453;BME280;30155;52.164;21.236;2023-04-21T09:37:50;100836.73;;;27.87;19.99
44453;BME280;30155;52.164;21.236;2023-04-21T09:42:42;100838.77;;;27.23;20.99
44453;BME280;30155;52.164;21.236;2023-04-21T09:47:39;100832.19;;;27.85;20.89
44453;BME280;30155;52.164;21.236;2023-04-21T09:52:33;100820.27;;;28.82;20.38
44453;BME280;30155;52.164;21.236;2023-04-21T09:57:26;100818.21;;;30.12;18.79
44453;BME280;30155;52.164;21.236;2023-04-21T10:02:22;100810.05;;;31.54;18.45
44453;BME280;30155;52.164;21.236;2023-04-21T10:07:16;100809.50;;;32.90;17.22
44453;BME280;30155;52.164;21.236;2023-04-21T10:12:09;100802.05;;;33.61;17.08
44453;BME280;30155;52.164;21.236;2023-04-21T10:17:03;100798.95;;;34.00;16.70
44453;BME280;30155;52.164;21.236;2023-04-21T10:21:57;100794.91;;;34.33;16.56
44453;BME280;30155;52.164;21.236;2023-04-21T10:26:50;100788.73;;;34.62;16.25
44453;BME280;30155;52.164;21.236;2023-04-21T10:41:37;100779.43;;;34.33;15.47
44453;BME280;30155;52.164;21.236;2023-04-21T10:46:31;100771.27;;;34.36;16.19
44453;BME280;30155;52.164;21.236;2023-04-21T10:51:25;100763.53;;;34.60;15.88
44453;BME280;30155;52.164;21.236;2023-04-21T10:56:22;100762.78;;;33.78;15.33
44453;BME280;30155;52.164;21.236;2023-04-21T11:01:15;100752.14;;;33.22;16.16
44453;BME280;30155;52.164;21.236;2023-04-21T11:06:15;100750.34;;;33.15;16.15
44453;BME280;30155;52.164;21.236;2023-04-21T11:11:09;100743.74;;;32.81;16.08
44453;BME280;30155;52.164;21.236;2023-04-21T11:16:05;100742.28;;;32.26;16.04
44453;BME280;30155;52.164;21.236;2023-04-21T11:26:04;100721.91;;;31.98;17.03
44453;BME280;30155;52.164;21.236;2023-04-21T11:30:57;100722.40;;;31.58;16.63
44453;BME280;30155;52.164;21.236;2023-04-21T11:35:50;100712.45;;;30.82;17.83
44453;BME280;30155;52.164;21.236;2023-04-21T11:40:48;100713.61;;;29.93;17.75
44453;BME280;30155;52.164;21.236;2023-04-21T11:45:41;100701.22;;;28.50;18.36
44453;BME280;30155;52.164;21.236;2023-04-21T11:50:34;100698.09;;;27.59;19.39
44453;BME280;30155;52.164;21.236;2023-04-21T11:55:29;100702.98;;;26.93;19.51
44453;BME280;30155;52.164;21.236;2023-04-21T12:00:22;100704.27;;;25.94;19.58
44453;BME280;30155;52.164;21.236;2023-04-21T12:05:14;100694.20;;;25.66;20.70
44453;BME280;30155;52.164;21.236;2023-04-21T12:10:15;100689.77;;;25.46;20.54
44453;BME280;30155;52.164;21.236;2023-04-21T12:15:09;100682.83;;;25.39;21.26
44453;BME280;30155;52.164;21.236;2023-04-21T12:20:04;100681.77;;;25.39;21.08
44453;BME280;30155;52.164;21.236;2023-04-21T12:24:57;100673.08;;;25.27;21.33
44453;BME280;30155;52.164;21.236;2023-04-21T12:29:50;100665.42;;;25.11;21.33
44453;BME280;30155;52.164;21.236;2023-04-21T12:34:43;100665.70;;;24.96;21.10
44453;BME280;30155;52.164;21.236;2023-04-21T12:39:35;100659.85;;;24.55;21.35
44453;BME280;30155;52.164;21.236;2023-04-21T12:44:28;100648.79;;;24.40;22.11
44453;BME280;30155;52.164;21.236;2023-04-21T12:49:21;100638.88;;;24.31;21.63
44453;BME280;30155;52.164;21.236;2023-04-21T12:54:14;100646.05;;;24.07;21.52
44453;BME280;30155;52.164;21.236;2023-04-21T12:59:07;100638.63;;;23.98;21.75
44453;BME280;30155;52.164;21.236;2023-04-21T13:04:00;100630.30;;;23.98;22.36
44453;BME280;30155;52.164;21.236;2023-04-21T13:08:54;100635.86;;;23.91;22.01
44453;BME280;30155;52.164;21.236;2023-04-21T13:13:47;100635.08;;;23.75;21.87
44453;BME280;30155;52.164;21.236;2023-04-21T13:18:40;100627.39;;;23.90;23.00
44453;BME280;30155;52.164;21.236;2023-04-21T13:23:32;100615.23;;;24.15;22.70
44453;BME280;30155;52.164;21.236;2023-04-21T13:28:25;100615.59;;;24.16;22.52
44453;BME280;30155;52.164;21.236;2023-04-21T13:33:18;100601.44;;;24.11;22.88
44453;BME280;30155;52.164;21.236;2023-04-21T13:38:11;100601.79;;;24.02;22.15
44453;BME280;30155;52.164;21.236;2023-04-21T13:43:04;100596.38;;;24.01;22.24
44453;BME280;30155;52.164;21.236;2023-04-21T13:47:57;100600.00;;;23.89;21.91
44453;BME280;30155;52.164;21.236;2023-04-21T13:52:49;100592.72;;;23.86;22.48
44453;BME280;30155;52.164;21.236;2023-04-21T13:57:42;100587.95;;;23.76;22.27
44453;BME280;30155;52.164;21.236;2023-04-21T14:02:35;100583.39;;;23.57;21.96
44453;BME280;30155;52.164;21.236;2023-04-21T14:07:29;100578.83;;;23.33;21.96
44453;BME280;30155;52.164;21.236;2023-04-21T14:12:22;100580.36;;;23.11;22.17
44453;BME280;30155;52.164;21.236;2023-04-21T14:17:16;100574.30;;;23.17;22.65
44453;BME280;30155;52.164;21.236;2023-04-21T14:22:09;100574.49;;;23.26;22.40
44453;BME280;30155;52.164;21.236;2023-04-21T14:27:02;100560.88;;;23.17;22.68
44453;BME280;30155;52.164;21.236;2023-04-21T14:31:55;100557.11;;;23.14;22.85
44453;BME280;30155;52.164;21.236;2023-04-21T14:36:50;100548.69;;;23.02;23.08
44453;BME280;30155;52.164;21.236;2023-04-21T14:41:42;100545.20;;;22.86;22.75
44453;BME280;30155;52.164;21.236;2023-04-21T14:46:35;100545.95;;;22.70;22.71
44453;BME280;30155;52.164;21.236;2023-04-21T14:51:29;100537.42;;;22.62;22.82
44453;BME280;30155;52.164;21.236;2023-04-21T14:56:22;100538.51;;;22.46;22.72
44453;BME280;30155;52.164;21.236;2023-04-21T15:01:15;100534.44;;;22.41;23.16
44453;BME280;30155;52.164;21.236;2023-04-21T15:06:08;100531.19;;;22.43;23.01
44453;BME280;30155;52.164;21.236;2023-04-21T15:11:01;100530.43;;;22.29;23.17
44453;BME280;30155;52.164;21.236;2023-04-21T15:15:54;100526.97;;;22.05;23.29
44453;BME280;30155;52.164;21.236;2023-04-21T15:20:47;100523.41;;;21.80;23.01
44453;BME280;30155;52.164;21.236;2023-04-21T15:25:39;100522.33;;;21.64;23.41
44453;BME280;30155;52.164;21.236;2023-04-21T15:30:32;100518.33;;;21.63;23.37
44453;BME280;30155;52.164;21.236;2023-04-21T15:35:26;100514.81;;;21.56;23.46
44453;BME280;30155;52.164;21.236;2023-04-21T15:40:19;100512.83;;;21.46;23.56
44453;BME280;30155;52.164;21.236;2023-04-21T15:45:11;100515.63;;;21.23;23.71
44453;BME280;30155;52.164;21.236;2023-04-21T15:50:04;100511.91;;;21.00;23.73
44453;BME280;30155;52.164;21.236;2023-04-21T15:54:57;100511.23;;;20.68;23.96
44453;BME280;30155;52.164;21.236;2023-04-21T15:59:51;100508.90;;;20.30;24.14
44453;BME280;30155;52.164;21.236;2023-04-21T16:04:43;100508.17;;;19.97;24.56
44453;BME280;30155;52.164;21.236;2023-04-21T16:09:37;100504.59;;;19.78;24.97
44453;BME280;30155;52.164;21.236;2023-04-21T16:14:29;100505.19;;;19.59;25.20
44453;BME280;30155;52.164;21.236;2023-04-21T16:19:41;100499.62;;;19.42;25.51
44453;BME280;30155;52.164;21.236;2023-04-21T16:24:36;100502.41;;;19.28;25.66
44453;BME280;30155;52.164;21.236;2023-04-21T16:29:29;100501.90;;;19.10;25.85
44453;BME280;30155;52.164;21.236;2023-04-21T16:34:22;100501.61;;;18.99;26.07
44453;BME280;30155;52.164;21.236;2023-04-21T16:39:14;100500.81;;;18.87;26.32
44453;BME280;30155;52.164;21.236;2023-04-21T16:44:08;100497.48;;;18.77;26.51
44453;BME280;30155;52.164;21.236;2023-04-21T16:49:00;100493.34;;;18.64;26.87
44453;BME280;30155;52.164;21.236;2023-04-21T16:53:53;100491.93;;;18.47;27.70
44453;BME280;30155;52.164;21.236;2023-04-21T16:58:47;100491.86;;;18.22;29.55
44453;BME280;30155;52.164;21.236;2023-04-21T17:03:39;100490.77;;;17.94;30.20
44453;BME280;30155;52.164;21.236;2023-04-21T17:08:32;100492.06;;;17.66;30.91
44453;BME280;30155;52.164;21.236;2023-04-21T17:13:25;100498.48;;;17.35;31.60
44453;BME280;30155;52.164;21.236;2023-04-21T17:18:18;100507.98;;;17.07;32.33
44453;BME280;30155;52.164;21.236;2023-04-21T17:23:10;100505.91;;;16.73;33.16
44453;BME280;30155;52.164;21.236;2023-04-21T17:28:03;100507.85;;;16.40;33.52
44453;BME280;30155;52.164;21.236;2023-04-21T17:32:56;100502.58;;;16.07;34.45
44453;BME280;30155;52.164;21.236;2023-04-21T17:38:07;100509.14;;;15.72;35.01
44453;BME280;30155;52.164;21.236;2023-04-21T17:43:00;100514.91;;;15.44;35.46
44453;BME280;30155;52.164;21.236;2023-04-21T17:47:52;100516.98;;;15.18;35.26
44453;BME280;30155;52.164;21.236;2023-04-21T17:52:45;100519.53;;;14.93;35.70
44453;BME280;30155;52.164;21.236;2023-04-21T17:57:38;100519.80;;;14.69;36.07
44453;BME280;30155;52.164;21.236;2023-04-21T18:02:30;100524.70;;;14.45;36.86
44453;BME280;30155;52.164;21.236;2023-04-21T18:07:23;100526.49;;;14.22;36.90
44453;BME280;30155;52.164;21.236;2023-04-21T18:12:16;100534.52;;;14.02;37.66
44453;BME280;30155;52.164;21.236;2023-04-21T18:17:10;100531.71;;;13.82;38.40
44453;BME280;30155;52.164;21.236;2023-04-21T18:22:04;100532.04;;;13.62;38.30
44453;BME280;30155;52.164;21.236;2023-04-21T18:26:57;100535.66;;;13.43;38.63
44453;BME280;30155;52.164;21.236;2023-04-21T18:31:49;100538.20;;;13.23;38.78
44453;BME280;30155;52.164;21.236;2023-04-21T18:36:42;100541.07;;;13.04;38.85
44453;BME280;30155;52.164;21.236;2023-04-21T18:41:36;100535.25;;;12.84;39.09
44453;BME280;30155;52.164;21.236;2023-04-21T18:46:29;100535.86;;;12.67;39.71
44453;BME280;30155;52.164;21.236;2023-04-21T18:51:22;100535.04;;;12.48;39.97
44453;BME280;30155;52.164;21.236;2023-04-21T18:56:15;100534.27;;;12.34;40.55
44453;BME280;30155;52.164;21.236;2023-04-21T19:01:07;100529.99;;;12.19;40.91
44453;BME280;30155;52.164;21.236;2023-04-21T19:06:00;100528.13;;;12.03;41.04
44453;BME280;30155;52.164;21.236;2023-04-21T19:10:53;100527.80;;;11.88;41.45
44453;BME280;30155;52.164;21.236;2023-04-21T19:15:46;100524.71;;;11.73;41.91
44453;BME280;30155;52.164;21.236;2023-04-21T19:20:39;100528.57;;;11.58;42.35
44453;BME280;30155;52.164;21.236;2023-04-21T19:25:32;100528.42;;;11.44;42.82
44453;BME280;30155;52.164;21.236;2023-04-21T19:30:25;100526.84;;;11.26;43.32
44453;BME280;30155;52.164;21.236;2023-04-21T19:35:17;100525.60;;;11.09;43.92
44453;BME280;30155;52.164;21.236;2023-04-21T19:40:11;100525.27;;;10.95;44.48
44453;BME280;30155;52.164;21.236;2023-04-21T19:45:04;100523.39;;;10.84;45.02
44453;BME280;30155;52.164;21.236;2023-04-21T19:49:58;100527.04;;;10.72;45.67
44453;BME280;30155;52.164;21.236;2023-04-21T19:54:51;100529.14;;;10.60;46.24
44453;BME280;30155;52.164;21.236;2023-04-21T19:59:44;100530.55;;;10.49;46.58
44453;BME280;30155;52.164;21.236;2023-04-21T20:04:37;100529.88;;;10.38;47.01
44453;BME280;30155;52.164;21.236;2023-04-21T20:09:30;100529.66;;;10.26;47.43
44453;BME280;30155;52.164;21.236;2023-04-21T20:14:22;100533.09;;;10.13;47.59
44453;BME280;30155;52.164;21.236;2023-04-21T20:19:15;100530.92;;;10.07;48.11
44453;BME280;30155;52.164;21.236;2023-04-21T20:24:08;100533.85;;;9.96;48.38
44453;BME280;30155;52.164;21.236;2023-04-21T20:29:02;100539.39;;;9.85;48.96
44453;BME280;30155;52.164;21.236;2023-04-21T20:33:55;100539.75;;;9.77;49.17
44453;BME280;30155;52.164;21.236;2023-04-21T20:38:48;100546.25;;;9.71;49.48
44453;BME280;30155;52.164;21.236;2023-04-21T20:43:41;100544.33;;;9.61;49.68
44453;BME280;30155;52.164;21.236;2023-04-21T20:48:34;100542.35;;;9.57;49.98
44453;BME280;30155;52.164;21.236;2023-04-21T20:53:26;100544.63;;;9.48;50.15
44453;BME280;30155;52.164;21.236;2023-04-21T20:58:19;100543.70;;;9.45;50.60
44453;BME280;30155;52.164;21.236;2023-04-21T21:03:12;100543.77;;;9.40;50.48
44453;BME280;30155;52.164;21.236;2023-04-21T21:08:06;100545.36;;;9.32;50.84
44453;BME280;30155;52.164;21.236;2023-04-21T21:12:59;100542.23;;;9.23;51.11
44453;BME280;30155;52.164;21.236;2023-04-21T21:17:51;100538.84;;;9.17;51.31
44453;BME280;30155;52.164;21.236;2023-04-21T21:22:44;100539.64;;;9.14;51.65
44453;BME280;30155;52.164;21.236;2023-04-21T21:27:37;100536.59;;;9.08;51.58
44453;BME280;30155;52.164;21.236;2023-04-21T21:32:30;100535.08;;;9.02;51.80
44453;BME280;30155;52.164;21.236;2023-04-21T21:37:23;100531.73;;;8.91;51.97
44453;BME280;30155;52.164;21.236;2023-04-21T21:42:15;100531.59;;;8.84;52.43
44453;BME280;30155;52.164;21.236;2023-04-21T21:47:10;100529.95;;;8.80;52.52
44453;BME280;30155;52.164;21.236;2023-04-21T21:52:03;100533.07;;;8.72;52.87
44453;BME280;30155;52.164;21.236;2023-04-21T21:56:56;100535.08;;;8.61;53.04
44453;BME280;30155;52.164;21.236;2023-04-21T22:01:49;100533.33;;;8.52;53.40
44453;BME280;30155;52.164;21.236;2023-04-21T22:06:42;100534.09;;;8.48;53.55
44453;BME280;30155;52.164;21.236;2023-04-21T22:11:35;100533.93;;;8.42;53.83
44453;BME280;30155;52.164;21.236;2023-04-21T22:16:28;100531.45;;;8.32;53.79
44453;BME280;30155;52.164;21.236;2023-04-21T22:21:21;100531.08;;;8.23;54.15
44453;BME280;30155;52.164;21.236;2023-04-21T22:26:16;100532.44;;;8.15;54.26
44453;BME280;30155;52.164;21.236;2023-04-21T22:31:09;100530.15;;;8.06;54.46
44453;BME280;30155;52.164;21.236;2023-04-21T22:36:01;100527.00;;;7.97;54.87
44453;BME280;30155;52.164;21.236;2023-04-21T22:40:54;100526.38;;;7.86;55.16
44453;BME280;30155;52.164;21.236;2023-04-21T22:45:47;100525.20;;;7.80;55.19
44453;BME280;30155;52.164;21.236;2023-04-21T22:50:40;100522.85;;;7.69;55.54
44453;BME280;30155;52.164;21.236;2023-04-21T22:55:34;100525.23;;;7.60;55.62
44453;BME280;30155;52.164;21.236;2023-04-21T23:00:27;100525.30;;;7.50;56.00
44453;BME280;30155;52.164;21.236;2023-04-21T23:05:20;100521.91;;;7.40;56.21
44453;BME280;30155;52.164;21.236;2023-04-21T23:10:13;100517.95;;;7.27;56.30
44453;BME280;30155;52.164;21.236;2023-04-21T23:15:05;100523.23;;;7.18;56.44
44453;BME280;30155;52.164;21.236;2023-04-21T23:19:58;100525.92;;;7.09;56.67
44453;BME280;30155;52.164;21.236;2023-04-21T23:24:57;100520.92;;;7.03;56.92
44453;BME280;30155;52.164;21.236;2023-04-21T23:29:49;100518.36;;;6.98;56.93
44453;BME280;30155;52.164;21.236;2023-04-21T23:34:45;100522.60;;;6.89;57.28
44453;BME280;30155;52.164;21.236;2023-04-21T23:39:37;100524.65;;;6.77;57.44
44453;BME280;30155;52.164;21.236;2023-04-21T23:44:31;100527.02;;;6.63;57.61
44453;BME280;30155;52.164;21.236;2023-04-21T23:49:23;100526.13;;;6.57;57.86
44453;BME280;30155;52.164;21.236;2023-04-21T23:54:16;100528.82;;;6.49;58.09
44453;BME280;30155;52.164;21.236;2023-04-21T23:59:09;100522.45;;;6.44;58.13
